메인 페이지
METAR-TAF:

METAR-TAF

공항 :

Waddington, 잉글랜드

위도: 53-10N, 경도: 000-31W, 고도: 68m

현재 날씨관측

예보는 20분 전, 01:50시(UTC)에 발표되었습니다.
북서7kt
온도 11°C
습도 87%
기압 1014 hPa
시정 10km 이상
약한비,

METAR: EGXW 130150Z AUTO 31007KT 9999 -RA BKN053/// BKN071/// 11/09 Q1014

시각: 03:10 (02:10 UTC)

예보

예보는 9 시간 21분 전, 16:49시(UTC)에 발표되었습니다.
예보 대상 시간: 12일 18시부터 13일 12시까지 (UTC)
북서8kt
시정 10km 이상
고도 3000ft 상공 구름 보통
일시적
12일 18시부터 13일 03시까지 (UTC)
시정: 5000m
고도 1000ft 상공 구름 많음
약한비
확률 30% :
일시적
12일 22시부터 13일 06시까지 (UTC)
시정: 2000m
고도 400ft 상공 구름 많음
이슬비
전환 중
13일 03시부터 13일 06시까지 (UTC)
고도 1600ft 상공 구름 많음
일시적
13일 03시부터 13일 10시까지 (UTC)
시정: 5000m
고도 1400ft 상공 구름 많음
약한비
전환 중
13일 11시부터 13일 12시까지 (UTC)
고도 2500ft 상공 구름 많음

TAF: EGXW 121649Z 1218/1312 32008KT 9999 SCT030 TEMPO 1218/1303 5000 -RA BKN010 PROB30 TEMPO 1222/1306 2000 DZ BKN004 BECMG 1303/1306 BKN016 TEMPO 1303/1310 5000 -RA BKN014 BECMG 1311/1312 BKN025

4,000개 이상의 공항 관측 자료 및 예보 (METAR 및 TAF 보고).

지도상에서 검색 가능한 기상관측소가 노란 점과 빨간 점으로 표시되어 있습니다.

기상관측소 명을 보려면 표시 위로 마우스를 이동하세요.

날씨 관측과 예보를 보려면 클릭하세요.

지도 변경 : 확대하려면 엑스 표시가 있는 녹색 버튼, 축소하려면 빼기 표시가 있는 녹색 버튼, 다음 페이지의 지도를 보려면 녹색 화살표를 클릭하세요.


METAR-TAF: